Time;durP1;ratioP1;P1;durP2;ratioP2;P2;SDS_P1;SDS_P2;PMS_P1;PMS_P2;Temp;Humidity;BMP_temperature;BMP_pressure;BME280_temperature;BME280_humidity;BME280_pressure;Samples;Min_cycle;Max_cycle;Signal;HPM_P1;HPM_P2
2021/01/08 00:00:29;;;;;;;76.43;13.93;;;1.10;99.90;;;;;;5031941;28;20261;-69
2021/01/08 00:02:55;;;;;;;77.05;14.95;;;1.20;99.90;;;;;;5032299;28;20213;-69
2021/01/08 00:05:22;;;;;;;74.88;15.00;;;1.10;99.90;;;;;;5032013;28;20206;-69
2021/01/08 00:07:48;;;;;;;73.65;13.95;;;1.10;99.90;;;;;;5031937;28;20625;-69
2021/01/08 00:10:14;;;;;;;68.65;12.00;;;1.10;99.90;;;;;;5031734;28;20258;-69
2021/01/08 00:12:41;;;;;;;72.00;14.38;;;1.10;99.90;;;;;;5031743;28;20216;-69
2021/01/08 00:15:08;;;;;;;74.57;13.27;;;1.10;99.90;;;;;;5031729;28;20753;-69
2021/01/08 00:17:36;;;;;;;74.05;13.25;;;1.10;99.90;;;;;;5031493;28;20233;-69
2021/01/08 00:20:03;;;;;;;71.85;12.80;;;1.20;99.90;;;;;;5031753;28;20692;-69
2021/01/08 00:22:29;;;;;;;72.40;13.80;;;1.20;99.90;;;;;;5031792;28;20669;-69
2021/01/08 00:24:55;;;;;;;72.03;12.80;;;1.20;99.90;;;;;;5031709;28;20569;-69
2021/01/08 00:27:23;;;;;;;74.95;14.65;;;1.20;99.90;;;;;;5031476;28;20651;-69
2021/01/08 00:29:50;;;;;;;75.72;14.82;;;1.20;99.90;;;;;;5031358;28;20230;-70
2021/01/08 00:32:17;;;;;;;71.75;13.52;;;1.20;99.90;;;;;;5031758;28;20206;-70
2021/01/08 00:34:44;;;;;;;73.40;13.05;;;1.20;99.90;;;;;;5031573;28;20206;-69
2021/01/08 00:37:10;;;;;;;72.95;11.63;;;1.20;99.90;;;;;;5031443;28;20228;-69
2021/01/08 00:39:38;;;;;;;68.57;12.63;;;1.20;99.90;;;;;;5031175;28;20248;-69
2021/01/08 00:42:04;;;;;;;68.35;12.25;;;1.20;99.90;;;;;;5031189;28;20395;-69
2021/01/08 00:44:31;;;;;;;76.18;13.90;;;1.30;99.90;;;;;;5032021;28;20210;-69
2021/01/08 00:46:57;;;;;;;71.30;11.70;;;1.30;99.90;;;;;;5030554;28;20297;-69
2021/01/08 00:49:23;;;;;;;72.38;11.90;;;1.30;99.90;;;;;;5031090;28;20233;-69
2021/01/08 00:51:52;;;;;;;70.43;13.77;;;1.30;99.90;;;;;;5031420;28;20228;-68
2021/01/08 00:54:18;;;;;;;68.43;12.30;;;1.30;99.90;;;;;;5031404;28;20289;-69
2021/01/08 00:56:46;;;;;;;69.75;12.13;;;1.30;99.90;;;;;;5031440;28;20271;-69
2021/01/08 00:59:12;;;;;;;71.88;12.13;;;1.30;99.90;;;;;;5031147;28;20513;-68
2021/01/08 01:01:39;;;;;;;74.15;13.60;;;1.30;99.90;;;;;;5031385;28;20247;-70
2021/01/08 01:04:05;;;;;;;77.55;14.32;;;1.40;99.90;;;;;;5031401;28;20202;-69
2021/01/08 01:06:33;;;;;;;73.00;13.15;;;1.40;99.90;;;;;;5031249;28;20206;-69
2021/01/08 01:09:01;;;;;;;72.30;13.70;;;1.40;99.90;;;;;;5030859;28;20715;-69
2021/01/08 01:11:29;;;;;;;74.05;13.80;;;1.40;99.90;;;;;;5031327;28;20371;-69
2021/01/08 01:13:56;;;;;;;70.88;12.48;;;1.40;99.90;;;;;;5031311;28;20206;-69
2021/01/08 01:16:23;;;;;;;71.10;13.02;;;1.40;99.90;;;;;;5031564;28;20206;-68
2021/01/08 01:18:51;;;;;;;67.30;11.38;;;1.40;99.90;;;;;;5030716;28;20612;-69
2021/01/08 01:21:18;;;;;;;72.97;13.15;;;1.40;99.90;;;;;;5031102;28;20217;-69
2021/01/08 01:23:45;;;;;;;71.25;13.48;;;1.40;99.90;;;;;;5030907;28;20210;-69
2021/01/08 01:26:12;;;;;;;73.30;13.05;;;1.40;99.90;;;;;;5031343;28;20203;-69
2021/01/08 01:28:38;;;;;;;75.65;13.43;;;1.40;99.90;;;;;;5030804;28;20265;-69
2021/01/08 01:31:05;;;;;;;73.82;14.50;;;1.40;99.90;;;;;;5031149;28;20206;-69
2021/01/08 01:33:32;;;;;;;72.97;14.57;;;1.40;99.90;;;;;;5030981;28;20771;-69
2021/01/08 01:36:03;;;;;;;70.05;13.65;;;1.30;99.90;;;;;;5031018;28;20300;-69
2021/01/08 01:38:29;;;;;;;75.75;14.88;;;1.30;99.90;;;;;;5030506;28;20767;-69
2021/01/08 01:40:56;;;;;;;70.68;13.20;;;1.20;99.90;;;;;;5030901;28;20285;-70
2021/01/08 01:43:23;;;;;;;74.97;15.27;;;1.20;99.90;;;;;;5031038;28;20206;-70
2021/01/08 01:45:49;;;;;;;74.50;14.52;;;1.10;99.90;;;;;;5031436;28;20250;-69
2021/01/08 01:48:16;;;;;;;76.93;14.93;;;1.00;99.90;;;;;;5031178;28;20293;-69
2021/01/08 01:50:43;;;;;;;75.22;14.18;;;0.90;99.90;;;;;;5030662;28;20210;-69
2021/01/08 01:53:10;;;;;;;73.25;14.23;;;0.80;99.90;;;;;;5030762;28;20693;-69
2021/01/08 01:55:36;;;;;;;72.38;11.77;;;0.70;99.90;;;;;;5030881;28;20241;-69
2021/01/08 01:58:03;;;;;;;71.30;13.07;;;0.60;99.90;;;;;;5032318;28;20230;-69
2021/01/08 02:00:31;;;;;;;73.53;12.88;;;0.60;99.90;;;;;;5034569;28;20234;-69
2021/01/08 02:03:03;;;;;;;81.10;13.68;;;0.50;99.90;;;;;;5034398;28;20260;-68
2021/01/08 02:05:31;;;;;;;68.70;11.63;;;0.50;99.90;;;;;;5034114;28;20206;-69
2021/01/08 02:08:02;;;;;;;70.60;11.90;;;0.40;99.90;;;;;;5034143;28;20229;-69
2021/01/08 02:10:35;;;;;;;71.85;11.85;;;0.40;99.90;;;;;;5033980;28;20544;-69
2021/01/08 02:13:02;;;;;;;73.10;11.88;;;0.40;99.90;;;;;;5034275;28;20206;-69
2021/01/08 02:15:30;;;;;;;71.95;11.57;;;0.40;99.90;;;;;;5033886;28;20251;-69
2021/01/08 02:18:00;;;;;;;69.78;12.82;;;0.30;99.90;;;;;;5033527;28;20222;-69
2021/01/08 02:20:26;;;;;;;70.70;11.95;;;0.40;99.90;;;;;;5034115;28;20222;-69
2021/01/08 02:23:00;;;;;;;74.60;12.50;;;0.40;99.90;;;;;;5034221;28;20513;-69
2021/01/08 02:25:30;;;;;;;71.10;12.93;;;0.40;99.90;;;;;;5033872;28;20205;-70
2021/01/08 02:28:18;;;;;;;71.93;12.65;;;0.50;99.90;;;;;;5033675;28;20209;-69
2021/01/08 02:30:45;;;;;;;68.50;13.07;;;0.50;99.90;;;;;;5033582;28;20816;-69
2021/01/08 02:33:13;;;;;;;70.38;12.93;;;0.60;99.90;;;;;;5033949;28;20207;-70
2021/01/08 02:35:40;;;;;;;71.70;12.25;;;0.60;99.90;;;;;;5033642;28;20345;-70
2021/01/08 02:38:08;;;;;;;68.93;11.75;;;0.70;99.90;;;;;;5033270;28;20313;-69
2021/01/08 02:40:36;;;;;;;69.97;11.88;;;0.70;99.90;;;;;;5033633;28;20674;-70
2021/01/08 02:43:04;;;;;;;70.13;11.98;;;0.80;99.90;;;;;;5033499;28;20214;-69
2021/01/08 02:45:31;;;;;;;74.45;12.80;;;0.80;99.90;;;;;;5033662;28;20632;-69
2021/01/08 02:47:58;;;;;;;69.28;12.75;;;0.80;99.90;;;;;;5033082;28;20206;-69
2021/01/08 02:50:25;;;;;;;74.88;13.27;;;0.80;99.90;;;;;;5033528;28;20620;-69
2021/01/08 02:52:57;;;;;;;75.18;14.15;;;0.80;99.90;;;;;;5033396;28;20256;-69
2021/01/08 02:55:25;;;;;;;71.00;14.80;;;0.90;99.90;;;;;;5033228;28;20213;-69
2021/01/08 02:57:53;;;;;;;72.10;14.70;;;0.90;99.90;;;;;;5045764;28;20755;-69
2021/01/08 03:00:19;;;;;;;72.53;14.38;;;0.90;99.90;;;;;;5052842;28;20272;-69
2021/01/08 03:02:46;;;;;;;69.45;12.90;;;0.90;99.90;;;;;;5053314;28;20297;-69
2021/01/08 03:05:13;;;;;;;71.32;12.82;;;0.90;99.90;;;;;;5052950;28;20206;-70
2021/01/08 03:07:41;;;;;;;75.13;15.70;;;0.90;99.90;;;;;;5052661;28;20247;-68
2021/01/08 03:10:09;;;;;;;74.88;14.55;;;0.90;99.90;;;;;;5052219;28;20240;-69
2021/01/08 03:12:36;;;;;;;70.72;13.20;;;0.90;99.90;;;;;;5052925;28;20209;-69
2021/01/08 03:15:07;;;;;;;73.55;13.32;;;0.90;99.90;;;;;;5052957;28;20237;-69
2021/01/08 03:17:33;;;;;;;70.72;13.07;;;0.90;99.90;;;;;;5053000;28;20225;-69
2021/01/08 03:20:00;;;;;;;74.00;13.60;;;0.90;99.90;;;;;;5052488;28;20723;-69
2021/01/08 03:22:26;;;;;;;76.05;12.70;;;1.00;99.90;;;;;;5052813;28;20216;-69
2021/01/08 03:24:52;;;;;;;70.45;12.50;;;1.00;99.90;;;;;;5053249;28;20236;-69
2021/01/08 03:27:19;;;;;;;73.32;13.43;;;0.90;99.90;;;;;;5052425;28;20247;-69
2021/01/08 03:29:45;;;;;;;77.80;12.88;;;1.00;99.90;;;;;;5052314;28;20267;-69
2021/01/08 03:32:12;;;;;;;76.63;12.80;;;0.90;99.90;;;;;;5052733;28;20210;-69
2021/01/08 03:34:38;;;;;;;74.50;13.40;;;0.90;99.90;;;;;;5052700;28;20210;-69
2021/01/08 03:37:05;;;;;;;70.82;12.65;;;0.90;99.90;;;;;;5052544;28;20210;-69
2021/01/08 03:39:31;;;;;;;74.63;12.98;;;0.90;99.90;;;;;;5051957;28;20243;-69
2021/01/08 03:41:57;;;;;;;71.65;12.50;;;0.90;99.90;;;;;;5052127;28;20232;-69
2021/01/08 03:44:24;;;;;;;70.80;11.55;;;0.90;99.90;;;;;;5052496;28;20244;-69
2021/01/08 03:46:50;;;;;;;69.97;13.65;;;0.90;99.90;;;;;;5052199;28;20686;-69
2021/01/08 03:49:17;;;;;;;70.72;12.20;;;0.90;99.90;;;;;;5051736;28;20221;-69
2021/01/08 03:51:43;;;;;;;70.60;11.98;;;0.90;99.90;;;;;;5052234;28;20209;-69
2021/01/08 03:54:10;;;;;;;69.03;12.07;;;0.90;99.90;;;;;;5052135;28;20698;-70
2021/01/08 03:56:36;;;;;;;70.55;12.00;;;0.90;99.90;;;;;;5051815;28;20212;-69
2021/01/08 03:59:02;;;;;;;75.55;13.75;;;0.80;99.90;;;;;;5051613;28;20268;-69
2021/01/08 04:01:29;;;;;;;72.43;13.45;;;0.90;99.90;;;;;;5052137;28;20209;-70
2021/01/08 04:03:55;;;;;;;72.88;12.75;;;0.90;99.90;;;;;;5052472;28;20206;-69
2021/01/08 04:06:22;;;;;;;74.88;12.77;;;0.90;99.90;;;;;;5051996;28;20206;-69
2021/01/08 04:08:49;;;;;;;69.82;11.73;;;0.90;99.90;;;;;;5052029;28;20738;-69
2021/01/08 04:11:15;;;;;;;70.95;12.43;;;0.90;99.90;;;;;;5051933;28;20292;-68
2021/01/08 04:13:41;;;;;;;73.15;12.80;;;0.90;99.90;;;;;;5052014;28;20232;-68
2021/01/08 04:16:07;;;;;;;77.18;13.30;;;0.80;99.90;;;;;;5051996;28;20608;-68
2021/01/08 04:18:34;;;;;;;71.15;14.20;;;0.80;99.90;;;;;;5051431;28;20663;-68
2021/01/08 04:21:00;;;;;;;80.82;15.70;;;0.80;99.90;;;;;;5051576;28;20288;-68
2021/01/08 04:23:27;;;;;;;75.20;13.40;;;0.70;99.90;;;;;;5051565;28;20235;-68
2021/01/08 04:25:54;;;;;;;78.22;14.88;;;0.70;99.90;;;;;;5051577;28;20740;-68
2021/01/08 04:28:20;;;;;;;73.75;14.98;;;0.60;99.90;;;;;;5051071;28;20716;-68
2021/01/08 04:30:46;;;;;;;75.18;14.23;;;0.60;99.90;;;;;;5051619;28;20209;-69
2021/01/08 04:33:12;;;;;;;76.50;14.80;;;0.60;99.90;;;;;;5051504;28;20699;-69
2021/01/08 04:35:39;;;;;;;76.72;14.90;;;0.50;99.90;;;;;;5051453;28;20202;-69
2021/01/08 04:38:05;;;;;;;76.65;15.05;;;0.50;99.90;;;;;;5051446;28;20257;-69
2021/01/08 04:40:33;;;;;;;76.57;15.27;;;0.50;99.90;;;;;;5051501;28;20213;-69
2021/01/08 04:42:59;;;;;;;76.07;14.80;;;0.50;99.90;;;;;;5051730;28;20209;-69
2021/01/08 04:45:26;;;;;;;76.63;14.38;;;0.50;99.90;;;;;;5051544;28;20209;-69
2021/01/08 04:47:54;;;;;;;73.03;14.93;;;0.50;99.90;;;;;;5051256;28;20589;-69
2021/01/08 04:50:23;;;;;;;80.65;15.75;;;0.60;99.90;;;;;;5051230;28;20310;-69
2021/01/08 04:52:50;;;;;;;81.00;16.70;;;0.60;99.90;;;;;;5051261;28;20579;-69
2021/01/08 04:55:17;;;;;;;79.88;15.35;;;0.60;99.90;;;;;;5051567;28;20621;-69
2021/01/08 04:57:48;;;;;;;76.47;14.80;;;0.70;99.90;;;;;;5051109;28;20229;-69
2021/01/08 05:00:15;;;;;;;73.70;13.43;;;0.70;99.90;;;;;;5051255;28;20238;-69
2021/01/08 05:02:42;;;;;;;73.93;13.50;;;0.70;99.90;;;;;;5051334;28;20205;-69
2021/01/08 05:05:10;;;;;;;76.22;14.27;;;0.70;99.90;;;;;;5051205;28;20237;-69
2021/01/08 05:07:36;;;;;;;73.97;13.45;;;0.70;99.90;;;;;;5050946;28;20201;-68
2021/01/08 05:10:03;;;;;;;76.30;13.23;;;0.70;99.90;;;;;;5051294;28;20261;-69
2021/01/08 05:12:39;;;;;;;73.78;12.68;;;0.70;99.90;;;;;;5051178;28;20459;-68
2021/01/08 05:15:12;;;;;;;74.93;12.38;;;0.60;99.90;;;;;;5051079;28;20588;-69
2021/01/08 05:17:39;;;;;;;74.35;14.82;;;0.70;99.90;;;;;;5050517;28;20225;-69
2021/01/08 05:20:07;;;;;;;77.82;14.68;;;0.70;99.90;;;;;;5051270;28;20287;-68
2021/01/08 05:22:34;;;;;;;73.60;13.75;;;0.70;99.90;;;;;;5051154;28;20206;-68
2021/01/08 05:25:01;;;;;;;73.95;14.52;;;0.70;99.90;;;;;;5051187;28;20287;-68
2021/01/08 05:27:28;;;;;;;77.60;13.57;;;0.70;99.90;;;;;;5050964;28;20206;-68
2021/01/08 05:29:55;;;;;;;76.63;13.48;;;0.70;99.90;;;;;;5050677;28;20229;-69
2021/01/08 05:32:23;;;;;;;72.57;13.32;;;0.70;99.90;;;;;;5051771;28;20228;-68
2021/01/08 05:34:50;;;;;;;76.93;13.63;;;0.70;99.90;;;;;;5055078;28;20206;-69
2021/01/08 05:37:18;;;;;;;73.07;13.05;;;0.80;99.90;;;;;;5054830;28;20572;-68
2021/01/08 05:39:45;;;;;;;74.85;14.82;;;0.80;99.90;;;;;;5054287;28;20229;-70
2021/01/08 05:42:12;;;;;;;70.10;12.57;;;0.80;99.90;;;;;;5054774;28;20205;-68
2021/01/08 05:44:39;;;;;;;74.07;13.45;;;0.80;99.90;;;;;;5054495;28;20228;-69
2021/01/08 05:47:06;;;;;;;72.63;13.15;;;0.90;99.90;;;;;;5054388;28;20212;-69
2021/01/08 05:49:36;;;;;;;77.68;13.93;;;0.90;99.90;;;;;;5054392;28;20226;-68
2021/01/08 05:52:02;;;;;;;71.55;14.40;;;0.80;99.90;;;;;;5054676;28;20217;-69
2021/01/08 05:54:29;;;;;;;73.50;13.13;;;0.80;99.90;;;;;;5054846;28;20233;-69
2021/01/08 05:56:55;;;;;;;71.63;12.85;;;0.80;99.90;;;;;;5054425;28;20217;-68
2021/01/08 05:59:25;;;;;;;70.60;12.23;;;0.80;99.90;;;;;;5053634;28;20230;-68
2021/01/08 06:01:56;;;;;;;71.30;12.90;;;0.80;99.90;;;;;;5054389;28;20209;-69
2021/01/08 06:04:27;;;;;;;73.72;13.07;;;0.80;99.90;;;;;;5054269;28;20217;-68
2021/01/08 06:06:55;;;;;;;76.88;12.82;;;0.70;99.90;;;;;;5054465;28;20296;-68
2021/01/08 06:09:22;;;;;;;71.22;12.07;;;0.80;99.90;;;;;;5053842;28;20249;-68
2021/01/08 06:11:49;;;;;;;73.60;13.07;;;0.80;99.90;;;;;;5053755;28;20225;-69
2021/01/08 06:14:17;;;;;;;69.18;11.07;;;0.80;99.90;;;;;;5054058;28;20259;-69
2021/01/08 06:16:46;;;;;;;71.28;11.73;;;0.80;99.90;;;;;;5053907;28;20241;-68
2021/01/08 06:19:14;;;;;;;70.05;12.05;;;0.70;99.90;;;;;;5053739;28;20649;-68
2021/01/08 06:21:42;;;;;;;70.53;11.45;;;0.70;99.90;;;;;;5054013;28;20209;-68
2021/01/08 06:24:12;;;;;;;70.82;12.25;;;0.70;99.90;;;;;;5053990;28;20201;-69
2021/01/08 06:26:40;;;;;;;68.18;11.35;;;0.70;99.90;;;;;;5053846;28;20209;-68
2021/01/08 06:29:16;;;;;;;70.63;10.50;;;0.70;99.90;;;;;;5053694;28;20218;-69
2021/01/08 06:31:48;;;;;;;69.50;10.73;;;0.70;99.90;;;;;;5054043;28;20662;-68
2021/01/08 06:34:22;;;;;;;72.00;12.07;;;0.70;99.90;;;;;;5053909;28;20216;-68
2021/01/08 06:37:04;;;;;;;70.22;11.43;;;0.70;99.90;;;;;;5053552;28;20224;-68
2021/01/08 06:39:35;;;;;;;71.05;11.95;;;0.70;99.90;;;;;;5053140;28;20279;-68
2021/01/08 06:42:02;;;;;;;69.68;11.60;;;0.80;99.90;;;;;;5053859;28;20209;-67
2021/01/08 06:44:30;;;;;;;71.40;11.90;;;0.80;99.90;;;;;;5052412;28;20210;-68
2021/01/08 06:46:58;;;;;;;67.20;10.45;;;0.80;99.90;;;;;;5053718;28;20236;-67
2021/01/08 06:49:25;;;;;;;69.43;10.95;;;0.80;99.90;;;;;;5052806;28;20228;-68
2021/01/08 06:51:51;;;;;;;66.28;10.30;;;0.80;99.90;;;;;;5053315;28;20219;-68
2021/01/08 06:54:17;;;;;;;69.05;12.43;;;0.80;99.90;;;;;;5053439;28;20213;-68
2021/01/08 06:56:45;;;;;;;70.32;10.10;;;0.90;99.90;;;;;;5053295;28;20258;-68
2021/01/08 06:59:13;;;;;;;69.97;10.45;;;0.90;99.90;;;;;;5052892;28;20230;-69
2021/01/08 07:01:53;;;;;;;69.80;10.80;;;0.90;99.90;;;;;;5053485;28;20201;-68
2021/01/08 07:04:21;;;;;;;68.70;12.05;;;0.90;99.90;;;;;;5053158;28;20722;-69
2021/01/08 07:06:47;;;;;;;71.32;11.85;;;1.00;99.90;;;;;;5053020;28;20205;-69
2021/01/08 07:09:14;;;;;;;69.53;12.98;;;1.00;99.90;;;;;;5052739;28;20221;-68
2021/01/08 07:11:40;;;;;;;64.68;9.75;;;1.00;99.90;;;;;;5053155;28;20513;-69
2021/01/08 07:14:10;;;;;;;67.53;10.20;;;1.00;99.90;;;;;;5052924;28;20588;-69
2021/01/08 07:16:45;;;;;;;67.85;10.15;;;1.00;99.90;;;;;;5052710;28;20205;-68
2021/01/08 07:19:13;;;;;;;66.57;10.80;;;1.00;99.90;;;;;;5052308;28;20274;-68
2021/01/08 07:21:48;;;;;;;65.60;10.15;;;1.00;99.90;;;;;;5052795;28;20210;-69
2021/01/08 07:24:16;;;;;;;66.68;9.18;;;1.00;99.90;;;;;;5052872;28;20243;-68
2021/01/08 07:26:43;;;;;;;67.38;11.50;;;1.00;99.90;;;;;;5052604;28;20697;-68
2021/01/08 07:29:11;;;;;;;67.13;10.40;;;1.00;99.90;;;;;;5052055;28;20229;-68
2021/01/08 07:31:38;;;;;;;65.72;9.60;;;1.10;99.90;;;;;;5052504;28;20209;-68
2021/01/08 07:34:06;;;;;;;63.15;9.88;;;1.10;99.90;;;;;;5052990;28;20201;-69
2021/01/08 07:36:34;;;;;;;64.13;8.75;;;1.10;99.90;;;;;;5052469;28;20212;-70
2021/01/08 07:39:00;;;;;;;65.72;9.70;;;1.20;99.90;;;;;;5052566;28;20581;-69
2021/01/08 07:41:31;;;;;;;67.25;10.25;;;1.10;99.90;;;;;;5052340;28;20208;-69
2021/01/08 07:43:57;;;;;;;64.20;10.07;;;1.10;99.90;;;;;;5052357;28;20209;-69
2021/01/08 07:46:28;;;;;;;67.78;9.88;;;1.10;99.90;;;;;;5052350;28;20248;-68
2021/01/08 07:48:57;;;;;;;66.47;9.15;;;1.20;99.90;;;;;;5052115;28;20592;-68
2021/01/08 07:51:24;;;;;;;65.60;10.02;;;1.20;99.90;;;;;;5052175;28;20300;-68
2021/01/08 07:53:52;;;;;;;67.82;11.20;;;1.20;99.90;;;;;;5051933;28;20209;-68
2021/01/08 07:56:21;;;;;;;68.65;10.32;;;1.20;99.90;;;;;;5051774;28;20823;-69
2021/01/08 07:58:58;;;;;;;67.22;10.43;;;1.20;99.90;;;;;;5051759;28;20238;-68
2021/01/08 08:01:24;;;;;;;65.80;9.80;;;1.20;99.90;;;;;;5052235;28;20201;-69
2021/01/08 08:03:58;;;;;;;64.63;9.98;;;1.30;99.90;;;;;;5052026;28;20296;-69
2021/01/08 08:06:27;;;;;;;67.53;9.93;;;1.30;99.90;;;;;;5051983;28;20585;-69
2021/01/08 08:08:54;;;;;;;67.50;10.40;;;1.30;99.90;;;;;;5051404;28;20247;-69
2021/01/08 08:11:25;;;;;;;68.07;12.43;;;1.30;99.90;;;;;;5051895;28;20217;-69
2021/01/08 08:13:52;;;;;;;63.85;9.00;;;1.40;99.90;;;;;;5051819;28;20255;-68
2021/01/08 08:16:18;;;;;;;65.30;9.25;;;1.40;99.90;;;;;;5051739;28;20213;-69
2021/01/08 08:18:50;;;;;;;63.35;8.05;;;1.40;99.90;;;;;;5051245;28;20229;-69
2021/01/08 08:21:17;;;;;;;62.92;8.60;;;1.50;99.90;;;;;;5051792;28;20201;-69
2021/01/08 08:23:51;;;;;;;65.95;9.27;;;1.50;99.90;;;;;;5051811;28;20206;-69
2021/01/08 08:26:18;;;;;;;62.50;8.32;;;1.60;99.90;;;;;;5051752;28;20722;-69
2021/01/08 08:28:44;;;;;;;65.18;8.30;;;1.60;99.90;;;;;;5051251;28;20712;-69
2021/01/08 08:31:13;;;;;;;63.42;8.10;;;1.70;99.90;;;;;;5051418;28;20213;-68
2021/01/08 08:33:44;;;;;;;62.42;7.97;;;1.70;99.90;;;;;;5051440;28;20208;-69
2021/01/08 08:36:11;;;;;;;62.40;7.95;;;1.80;99.90;;;;;;5051633;28;20205;-69
2021/01/08 08:38:38;;;;;;;64.30;8.50;;;1.80;99.90;;;;;;5051020;28;20320;-69
2021/01/08 08:41:12;;;;;;;62.38;7.90;;;1.80;99.90;;;;;;5051614;28;20213;-69
2021/01/08 08:43:39;;;;;;;62.50;8.70;;;1.80;99.90;;;;;;5051551;28;20212;-69
2021/01/08 08:46:05;;;;;;;60.58;7.45;;;1.80;99.90;;;;;;5051599;28;20209;-69
2021/01/08 08:48:32;;;;;;;60.70;7.43;;;1.80;99.90;;;;;;5051319;28;20232;-68
2021/01/08 08:50:58;;;;;;;65.97;7.85;;;1.80;99.90;;;;;;5051116;28;20694;-69
2021/01/08 08:53:25;;;;;;;61.50;7.10;;;1.90;99.90;;;;;;5051384;28;20214;-69
2021/01/08 08:55:55;;;;;;;61.88;7.60;;;1.90;99.90;;;;;;5051531;28;20206;-69
2021/01/08 08:58:21;;;;;;;60.75;7.18;;;1.90;99.90;;;;;;5050900;28;20229;-69
2021/01/08 09:00:47;;;;;;;59.72;6.20;;;1.90;99.90;;;;;;5051135;28;20580;-69
2021/01/08 09:03:18;;;;;;;60.05;6.30;;;1.90;99.90;;;;;;5051377;28;20209;-68
2021/01/08 09:05:45;;;;;;;60.65;6.70;;;1.80;99.90;;;;;;5051331;28;20619;-69
2021/01/08 09:08:20;;;;;;;60.92;6.55;;;1.80;99.90;;;;;;5053211;28;20296;-69
2021/01/08 09:10:55;;;;;;;60.75;5.75;;;1.70;99.90;;;;;;5055511;28;20224;-68
2021/01/08 09:13:32;;;;;;;60.97;6.70;;;1.70;99.90;;;;;;5055380;28;20209;-68
2021/01/08 09:16:04;;;;;;;58.97;5.97;;;1.60;99.90;;;;;;5055558;28;20219;-68
2021/01/08 09:18:40;;;;;;;58.70;6.20;;;1.50;99.90;;;;;;5054999;28;20238;-69
2021/01/08 09:21:13;;;;;;;59.05;6.30;;;1.60;99.90;;;;;;5055031;28;20201;-69
2021/01/08 09:23:43;;;;;;;60.78;6.72;;;1.60;99.90;;;;;;5055428;28;20210;-68
2021/01/08 09:26:11;;;;;;;62.05;6.53;;;1.60;99.90;;;;;;5055431;28;20201;-68
2021/01/08 09:28:41;;;;;;;60.30;5.97;;;1.70;99.90;;;;;;5054687;28;20657;-68
2021/01/08 09:31:08;;;;;;;62.20;6.32;;;1.70;99.90;;;;;;5054894;28;20298;-68
2021/01/08 09:33:34;;;;;;;60.53;6.72;;;1.80;99.90;;;;;;5054961;28;20656;-68
2021/01/08 09:36:01;;;;;;;61.70;6.38;;;1.80;99.90;;;;;;5054577;28;20228;-68
2021/01/08 09:38:29;;;;;;;59.95;6.05;;;1.90;99.90;;;;;;5054487;28;20240;-68
2021/01/08 09:40:56;;;;;;;59.90;6.28;;;1.90;99.90;;;;;;5054708;28;20212;-67
2021/01/08 09:43:24;;;;;;;60.15;5.80;;;1.90;99.90;;;;;;5054772;28;20232;-69
2021/01/08 09:46:03;;;;;;;61.45;6.93;;;1.90;99.90;;;;;;5054637;28;20213;-67
2021/01/08 09:48:30;;;;;;;59.65;5.63;;;2.00;99.90;;;;;;5053960;28;20230;-67
2021/01/08 09:51:00;;;;;;;58.38;5.43;;;2.00;99.90;;;;;;5054542;28;20248;-68
2021/01/08 09:53:26;;;;;;;59.15;5.53;;;2.00;99.90;;;;;;5054710;28;20205;-68
2021/01/08 09:55:53;;;;;;;59.83;5.72;;;2.00;99.90;;;;;;5054405;28;20210;-69
2021/01/08 09:58:19;;;;;;;59.65;5.72;;;2.00;99.90;;;;;;5054077;28;20614;-70
2021/01/08 10:00:50;;;;;;;59.35;5.60;;;2.00;99.90;;;;;;5054165;28;20297;-68
2021/01/08 10:03:20;;;;;;;59.78;5.63;;;2.00;99.90;;;;;;5054126;28;20213;-68
2021/01/08 10:05:46;;;;;;;58.47;5.32;;;1.90;99.90;;;;;;5054136;28;20296;-68
2021/01/08 10:08:20;;;;;;;62.42;5.95;;;1.90;99.90;;;;;;5053854;28;20697;-67
2021/01/08 10:10:47;;;;;;;61.10;6.70;;;1.90;99.90;;;;;;5054222;28;20292;-68
2021/01/08 10:13:18;;;;;;;59.08;5.80;;;1.90;99.90;;;;;;5054223;28;20237;-68
2021/01/08 10:15:47;;;;;;;57.97;5.00;;;1.90;99.90;;;;;;5053996;28;20255;-68
2021/01/08 10:18:15;;;;;;;59.40;5.45;;;1.90;99.90;;;;;;5053488;28;20226;-68
2021/01/08 10:20:44;;;;;;;65.53;5.20;;;1.90;99.90;;;;;;5053945;28;20240;-69
2021/01/08 10:23:15;;;;;;;61.22;7.10;;;2.70;99.90;;;;;;5053994;28;20209;-70
2021/01/08 10:25:41;;;;;;;61.55;6.85;;;3.10;99.90;;;;;;5053001;28;20579;-68
2021/01/08 10:28:14;;;;;;;60.47;6.32;;;3.10;99.90;;;;;;5052683;28;20217;-68
2021/01/08 10:30:41;;;;;;;59.47;5.22;;;3.00;99.90;;;;;;5049484;28;20202;-69
2021/01/08 10:33:09;;;;;;;59.97;6.25;;;2.90;99.90;;;;;;5053596;28;20302;-67
2021/01/08 10:35:36;;;;;;;59.67;5.45;;;2.80;99.90;;;;;;5053790;28;20297;-68
2021/01/08 10:38:03;;;;;;;61.40;6.03;;;2.70;99.90;;;;;;5053163;28;20221;-70
2021/01/08 10:40:30;;;;;;;58.97;5.63;;;2.60;99.90;;;;;;5053964;28;20209;-68
2021/01/08 10:42:57;;;;;;;59.85;5.43;;;2.50;99.90;;;;;;5053750;28;20237;-69
2021/01/08 10:45:23;;;;;;;58.83;5.30;;;2.40;99.90;;;;;;5053696;28;20761;-68
2021/01/08 10:47:49;;;;;;;59.38;6.03;;;2.30;99.90;;;;;;5053686;28;20210;-68
2021/01/08 10:50:17;;;;;;;60.78;5.93;;;2.30;99.90;;;;;;5053374;28;20253;-68
2021/01/08 10:52:44;;;;;;;60.30;6.50;;;2.30;99.90;;;;;;5053450;28;20218;-68
2021/01/08 10:55:11;;;;;;;58.72;5.32;;;2.30;99.90;;;;;;5053107;28;20201;-70
2021/01/08 10:57:38;;;;;;;58.92;6.07;;;2.40;99.90;;;;;;5053124;28;20205;-67
2021/01/08 11:00:08;;;;;;;61.53;6.63;;;2.40;99.90;;;;;;5041756;28;20256;-68
2021/01/08 11:02:35;;;;;;;60.85;6.35;;;2.50;99.90;;;;;;5033454;28;20214;-68
2021/01/08 11:05:01;;;;;;;60.65;6.80;;;2.50;99.90;;;;;;5033153;28;20206;-68
2021/01/08 11:07:28;;;;;;;60.05;5.88;;;2.60;99.90;;;;;;5033264;28;20237;-68
2021/01/08 11:09:55;;;;;;;61.28;7.28;;;2.70;99.90;;;;;;5032563;28;20222;-69
2021/01/08 11:12:21;;;;;;;59.90;6.68;;;2.70;99.90;;;;;;5032956;28;20225;-68
2021/01/08 11:14:47;;;;;;;60.00;6.30;;;2.70;99.90;;;;;;5033287;28;20305;-69
2021/01/08 11:17:13;;;;;;;58.92;5.78;;;2.70;99.90;;;;;;5033169;28;20580;-68
2021/01/08 11:19:40;;;;;;;62.58;6.53;;;2.70;99.90;;;;;;5032571;28;20238;-68
2021/01/08 11:22:07;;;;;;;60.00;6.55;;;2.70;99.90;;;;;;5032861;28;20207;-68
2021/01/08 11:24:36;;;;;;;60.28;6.50;;;2.70;99.90;;;;;;5032730;28;20209;-69
2021/01/08 11:27:03;;;;;;;63.45;8.85;;;2.70;99.90;;;;;;5032917;28;20202;-68
2021/01/08 11:29:29;;;;;;;63.17;7.38;;;2.70;99.90;;;;;;5032126;28;20317;-69
2021/01/08 11:31:55;;;;;;;62.65;7.70;;;2.70;99.90;;;;;;5032437;28;20210;-68
2021/01/08 11:34:22;;;;;;;62.70;6.85;;;2.80;99.90;;;;;;5032768;28;20280;-68
2021/01/08 11:36:48;;;;;;;60.60;7.50;;;2.70;99.90;;;;;;5032498;28;20206;-68
2021/01/08 11:39:15;;;;;;;63.80;8.45;;;2.80;99.90;;;;;;5032281;28;20923;-68
2021/01/08 11:41:42;;;;;;;61.95;7.97;;;2.80;99.90;;;;;;5032724;28;20202;-68
2021/01/08 11:44:08;;;;;;;59.20;6.70;;;2.80;99.90;;;;;;5032365;28;20206;-68
2021/01/08 11:46:35;;;;;;;67.05;8.70;;;2.70;99.90;;;;;;5032563;28;20206;-68
2021/01/08 11:49:01;;;;;;;61.78;8.50;;;2.70;99.90;;;;;;5031793;28;20226;-68
2021/01/08 11:51:27;;;;;;;61.70;7.57;;;2.70;99.90;;;;;;5032234;28;20213;-67
2021/01/08 11:53:54;;;;;;;65.20;8.52;;;2.60;99.90;;;;;;5032507;28;20272;-69
2021/01/08 11:56:27;;;;;;;61.88;7.85;;;2.60;99.90;;;;;;5032598;28;20599;-67
2021/01/08 11:58:55;;;;;;;65.53;7.70;;;2.50;99.90;;;;;;5031930;28;20289;-67
2021/01/08 12:01:25;;;;;;;61.55;7.20;;;2.50;99.90;;;;;;5032143;28;20630;-67
2021/01/08 12:03:52;;;;;;;64.63;7.78;;;2.40;99.90;;;;;;5031862;28;20214;-67
2021/01/08 12:06:24;;;;;;;64.00;8.23;;;2.40;99.90;;;;;;5031965;28;20632;-68
2021/01/08 12:08:50;;;;;;;60.10;6.68;;;2.30;99.90;;;;;;5031688;28;20583;-67
2021/01/08 12:11:16;;;;;;;62.38;7.53;;;2.30;99.90;;;;;;5031966;28;20246;-68
2021/01/08 12:13:43;;;;;;;59.95;7.25;;;2.20;99.90;;;;;;5032059;28;20557;-67
2021/01/08 12:16:11;;;;;;;63.50;7.75;;;2.20;99.90;;;;;;5031813;28;20206;-67
2021/01/08 12:18:37;;;;;;;64.38;8.38;;;2.30;99.90;;;;;;5031251;28;20234;-68
2021/01/08 12:21:06;;;;;;;62.25;7.65;;;2.30;99.90;;;;;;5031883;28;20242;-69
2021/01/08 12:23:33;;;;;;;65.95;8.65;;;2.30;99.90;;;;;;5031961;28;20646;-68
2021/01/08 12:25:59;;;;;;;67.70;9.52;;;2.30;99.90;;;;;;5031740;28;20704;-68
2021/01/08 12:28:26;;;;;;;66.20;8.80;;;2.30;99.90;;;;;;5031296;28;20228;-67
2021/01/08 12:30:52;;;;;;;66.25;7.80;;;2.30;99.90;;;;;;5031590;28;20230;-67
2021/01/08 12:33:19;;;;;;;61.92;7.18;;;2.40;99.90;;;;;;5031542;28;20230;-66
2021/01/08 12:35:46;;;;;;;64.18;7.70;;;2.40;98.20;;;;;;5031560;28;20213;-68
2021/01/08 12:38:12;;;;;;;63.50;8.00;;;2.40;98.90;;;;;;5031087;28;20265;-68
2021/01/08 12:40:39;;;;;;;62.67;7.40;;;2.40;98.40;;;;;;5031463;28;20746;-68
2021/01/08 12:43:05;;;;;;;61.35;7.28;;;2.50;96.60;;;;;;5030618;28;20695;-68